Time;durP1;ratioP1;P1;durP2;ratioP2;P2;SDS_P1;SDS_P2;PMS_P1;PMS_P2;Temp;Humidity;BMP_temperature;BMP_pressure;BME280_temperature;BME280_humidity;BME280_pressure;Samples;Min_cycle;Max_cycle;Signal;HPM_P1;HPM_P2
2022/11/01 00:00:29;;;;;;;13.55;8.77;;;;;;;16.23;69.47;102071.22;5047622;28;20500;-88
2022/11/01 00:02:55;;;;;;;15.40;9.10;;;;;;;16.58;69.64;102136.31;5031489;28;20406;-90
2022/11/01 00:05:20;;;;;;;13.23;8.70;;;;;;;16.34;69.76;102095.47;5033997;28;20036;-89
2022/11/01 00:07:46;;;;;;;12.43;8.68;;;;;;;16.54;69.08;102122.91;5017995;28;20035;-88
2022/11/01 00:10:11;;;;;;;12.07;8.65;;;;;;;16.55;68.80;102098.31;5034761;28;20029;-88
2022/11/01 00:12:37;;;;;;;13.07;9.43;;;;;;;16.37;69.07;102082.47;5055486;28;20029;-89
2022/11/01 00:15:03;;;;;;;13.23;9.55;;;;;;;16.26;69.31;102060.84;5035705;28;20486;-87
2022/11/01 00:17:29;;;;;;;12.73;8.70;;;;;;;16.47;69.42;102112.03;5030281;28;20582;-89
2022/11/01 00:19:56;;;;;;;13.93;9.38;;;;;;;16.42;69.48;102107.34;5042706;28;20470;-88
2022/11/01 00:22:22;;;;;;;11.35;8.30;;;;;;;16.57;69.68;102134.47;5027937;28;20072;-89
2022/11/01 00:24:47;;;;;;;12.50;8.60;;;;;;;16.56;69.62;102142.34;5014804;28;20060;-88
2022/11/01 00:27:13;;;;;;;11.93;8.68;;;;;;;16.51;69.33;102115.75;5028415;28;20029;-86
2022/11/01 00:29:39;;;;;;;16.27;8.65;;;;;;;16.57;69.30;102121.31;5012859;28;20511;-89
2022/11/01 00:32:05;;;;;;;11.02;8.40;;;;;;;16.59;69.35;102129.28;4996423;28;20670;-88
2022/11/01 00:34:31;;;;;;;13.30;8.43;;;;;;;16.55;69.37;102106.22;5027013;28;20033;-89
2022/11/01 00:36:56;;;;;;;11.75;8.20;;;;;;;16.38;68.94;102074.66;5009916;28;20017;-88
2022/11/01 00:39:22;;;;;;;12.27;8.90;;;;;;;16.62;69.30;102126.84;5031024;28;20096;-89
2022/11/01 00:41:47;;;;;;;13.85;8.45;;;;;;;16.49;69.38;102109.47;5016031;28;20546;-89
2022/11/01 00:44:13;;;;;;;10.98;8.32;;;;;;;16.39;69.22;102084.34;5017199;28;20120;-90
2022/11/01 00:46:39;;;;;;;11.88;8.18;;;;;;;16.26;69.65;102071.38;5032003;28;20026;-89
2022/11/01 00:49:05;;;;;;;11.85;8.13;;;;;;;16.35;69.00;102071.84;5014229;28;20030;-89
2022/11/01 00:51:31;;;;;;;13.30;8.68;;;;;;;16.23;69.13;102053.69;5031831;28;20029;-89
2022/11/01 00:53:56;;;;;;;12.00;8.30;;;;;;;16.06;69.16;102034.38;4997746;28;20025;-89
2022/11/01 00:56:23;;;;;;;12.20;8.48;;;;;;;16.42;69.65;102104.69;5029877;28;20028;-89
2022/11/01 00:58:49;;;;;;;12.98;8.73;;;;;;;16.48;69.08;102105.91;4995463;28;20521;-89
2022/11/01 01:01:17;;;;;;;12.85;8.73;;;;;;;16.48;68.99;102099.75;4997815;28;20499;-88
2022/11/01 01:03:42;;;;;;;10.95;8.57;;;;;;;16.41;69.11;102087.09;4997482;28;20032;-89
2022/11/01 01:06:08;;;;;;;11.10;7.80;;;;;;;16.43;68.92;102091.59;5027764;28;20025;-88
2022/11/01 01:08:33;;;;;;;12.65;7.90;;;;;;;16.27;68.54;102060.91;5014236;28;20088;-89
2022/11/01 01:10:59;;;;;;;12.75;7.88;;;;;;;16.43;68.50;102066.97;5017614;28;20021;-88
2022/11/01 01:13:26;;;;;;;13.15;8.57;;;;;;;16.67;68.36;102115.66;5041166;28;20491;-88
2022/11/01 01:15:52;;;;;;;11.05;7.65;;;;;;;16.62;68.43;102109.28;5008942;28;20030;-88
2022/11/01 01:18:19;;;;;;;11.73;8.35;;;;;;;16.45;68.73;102078.50;4998466;28;20505;-89
2022/11/01 01:20:45;;;;;;;14.07;8.52;;;;;;;16.59;68.87;102129.28;5013661;28;20486;-88
2022/11/01 01:23:11;;;;;;;12.50;8.20;;;;;;;16.44;68.91;102098.66;5028430;28;20100;-87
2022/11/01 01:25:41;;;;;;;13.25;8.38;;;;;;;16.66;68.51;102132.34;5013922;28;20177;-87
2022/11/01 01:28:08;;;;;;;11.95;8.40;;;;;;;16.54;68.69;102115.88;5018501;28;20068;-88
2022/11/01 01:30:34;;;;;;;12.38;7.90;;;;;;;16.58;68.78;102131.03;5048031;28;20060;-88
2022/11/01 01:32:59;;;;;;;11.45;7.95;;;;;;;16.56;68.79;102126.53;5031083;28;20029;-89
2022/11/01 01:35:25;;;;;;;14.65;8.45;;;;;;;16.40;68.85;102099.38;5024422;28;20033;-88
2022/11/01 01:37:50;;;;;;;10.82;7.78;;;;;;;16.55;68.63;102114.16;5037269;28;20108;-88
2022/11/01 01:40:16;;;;;;;10.60;7.70;;;;;;;16.45;68.39;102103.13;5035311;28;20033;-88
2022/11/01 01:42:42;;;;;;;12.93;8.10;;;;;;;16.50;68.78;102100.72;5040987;28;20100;-88
2022/11/01 01:45:32;;;;;;;11.70;8.10;;;;;;;16.35;68.66;102087.66;5017551;28;20029;-88
2022/11/01 01:48:08;;;;;;;11.05;7.68;;;;;;;16.44;68.89;102097.78;5036632;28;20502;-89
2022/11/01 01:50:37;;;;;;;13.27;7.82;;;;;;;16.49;68.43;102106.84;5033468;28;20084;-89
2022/11/01 01:53:17;;;;;;;9.68;7.72;;;;;;;16.64;68.09;102122.53;5013006;28;20033;-88
2022/11/01 01:56:00;;;;;;;11.77;7.88;;;;;;;16.46;68.44;102098.75;5004345;28;20021;-89
2022/11/01 01:58:49;;;;;;;11.15;7.85;;;;;;;16.64;68.31;102134.00;4997467;28;20069;-88
2022/11/01 02:01:15;;;;;;;11.95;7.25;;;;;;;16.52;68.45;102108.72;5023855;28;20025;-88
2022/11/01 02:03:41;;;;;;;11.45;7.80;;;;;;;16.20;68.39;102055.25;5017254;28;20545;-88
2022/11/01 02:06:16;;;;;;;11.73;7.43;;;;;;;16.19;68.36;102051.72;5017437;28;20156;-88
2022/11/01 02:08:44;;;;;;;11.27;7.53;;;;;;;16.31;68.26;102077.78;5017447;28;20116;-89
2022/11/01 02:11:11;;;;;;;10.73;7.28;;;;;;;16.59;68.20;102135.47;5017488;28;20021;-89
2022/11/01 02:13:38;;;;;;;11.43;7.65;;;;;;;16.53;68.67;102126.34;5017569;28;20037;-88
2022/11/01 02:16:25;;;;;;;10.10;7.68;;;;;;;16.61;68.13;102132.91;5001820;28;20021;-89
2022/11/01 02:19:01;;;;;;;10.43;7.13;;;;;;;16.46;68.03;102109.31;5038562;28;20569;-89
2022/11/01 02:21:49;;;;;;;10.07;7.35;;;;;;;16.59;68.33;102135.47;5017200;28;20033;-90
2022/11/01 02:24:26;;;;;;;;;;;;;;;16.59;68.16;102138.09;5017161;28;20046;-88
2022/11/01 02:27:06;;;;;;;12.10;8.25;;;;;;;16.56;68.20;102132.69;5037301;28;20370;-87
2022/11/01 02:29:50;;;;;;;11.18;7.55;;;;;;;16.55;68.19;102129.97;5018391;28;20029;-87
2022/11/01 02:32:25;;;;;;;10.07;7.05;;;;;;;16.56;68.07;102130.06;5032923;28;20470;-87
2022/11/01 02:34:58;;;;;;;14.00;7.55;;;;;;;16.42;68.38;102104.69;5023628;28;20086;-88
2022/11/01 02:37:33;;;;;;;11.15;7.47;;;;;;;16.50;68.25;102116.56;5018275;28;20032;-88
2022/11/01 02:40:04;;;;;;;10.10;6.65;;;;;;;16.41;68.44;102129.28;5041543;28;20032;-89
2022/11/01 02:42:37;;;;;;;10.30;7.38;;;;;;;16.47;68.47;102141.03;5016548;28;20029;-88
2022/11/01 02:45:07;;;;;;;9.48;7.18;;;;;;;16.34;68.27;102099.06;5019441;28;20454;-88
2022/11/01 02:47:33;;;;;;;10.50;7.32;;;;;;;16.43;68.17;102114.44;5003862;28;20057;-88
2022/11/01 02:50:05;;;;;;;9.63;7.20;;;;;;;16.55;68.04;102146.72;5020488;28;20479;-88
2022/11/01 02:52:33;;;;;;;9.48;6.63;;;;;;;16.43;68.11;102125.88;5017507;28;20096;-88
2022/11/01 02:55:03;;;;;;;9.65;7.07;;;;;;;16.38;68.14;102113.28;5016157;28;20056;-88
2022/11/01 02:57:35;;;;;;;11.13;7.20;;;;;;;16.49;68.43;102147.28;5020359;28;20032;-87
2022/11/01 03:00:19;;;;;;;9.68;7.07;;;;;;;16.13;68.26;102076.81;5017202;28;20025;-88
2022/11/01 03:02:44;;;;;;;9.40;6.95;;;;;;;16.43;68.63;102136.44;5000080;28;20122;-87
2022/11/01 03:05:26;;;;;;;11.55;7.22;;;;;;;16.52;68.51;102143.00;5033735;28;20061;-89
2022/11/01 03:07:56;;;;;;;8.75;6.72;;;;;;;16.50;68.31;102148.19;4997829;28;20096;-89
2022/11/01 03:10:27;;;;;;;8.45;6.43;;;;;;;16.47;68.40;102141.03;5014225;28;20175;-89
2022/11/01 03:13:12;;;;;;;7.97;6.50;;;;;;;16.34;68.36;102129.75;5015175;28;20088;-89
2022/11/01 03:15:44;;;;;;;9.98;6.97;;;;;;;16.34;68.39;102113.94;5015261;28;20017;-88
2022/11/01 03:18:14;;;;;;;10.68;7.32;;;;;;;16.55;68.20;102153.69;5014756;28;20025;-88
2022/11/01 03:20:58;;;;;;;8.95;6.65;;;;;;;16.25;68.45;102122.28;5021159;28;20047;-89
2022/11/01 03:23:37;;;;;;;9.05;7.00;;;;;;;16.49;68.25;102160.47;5030830;28;20423;-88
2022/11/01 03:26:07;;;;;;;10.02;6.60;;;;;;;16.51;68.29;102155.31;5014862;28;20021;-89
2022/11/01 03:28:41;;;;;;;10.65;6.60;;;;;;;16.41;68.15;102139.81;5023688;28;20033;-88
2022/11/01 03:31:28;;;;;;;10.25;6.57;;;;;;;16.34;68.54;102141.22;5028578;28;20025;-88
2022/11/01 03:34:02;;;;;;;9.43;6.72;;;;;;;16.45;68.38;102160.25;5015603;28;20029;-88
2022/11/01 03:36:39;;;;;;;9.93;6.47;;;;;;;16.26;68.36;102121.47;5015455;28;20054;-87
2022/11/01 03:39:09;;;;;;;;;;;;;;;16.45;68.33;102150.59;5015634;28;20030;-87
2022/11/01 03:41:39;;;;;;;8.75;6.35;;;;;;;16.37;68.15;102133.47;5015990;28;19913;-86
2022/11/01 03:44:05;;;;;;;10.10;7.13;;;;;;;16.32;68.56;102152.50;5034037;28;20057;-87
2022/11/01 03:46:31;;;;;;;;;;;;;;;16.41;68.29;102166.19;5006046;28;20115;-87
2022/11/01 03:48:56;;;;;;;9.85;6.70;;;;;;;16.36;68.27;102155.41;5023266;28;20047;-86
2022/11/01 03:51:22;;;;;;;10.55;6.90;;;;;;;16.31;68.02;102153.34;5014778;28;20411;-86
2022/11/01 03:53:47;;;;;;;8.35;6.70;;;;;;;16.40;68.56;102172.25;5032698;28;20033;-87
2022/11/01 03:56:13;;;;;;;9.55;7.13;;;;;;;16.17;68.16;102131.50;5032584;28;20037;-87
2022/11/01 03:58:43;;;;;;;7.88;6.38;;;;;;;16.23;68.52;102145.00;5017267;28;20033;-88
2022/11/01 04:01:10;;;;;;;10.40;7.00;;;;;;;16.40;68.41;102164.34;5022021;28;20053;-87
2022/11/01 04:03:35;;;;;;;8.98;6.60;;;;;;;16.38;68.04;102164.31;5015049;28;20021;-88
2022/11/01 04:06:01;;;;;;;9.77;6.25;;;;;;;16.42;68.35;102173.25;4998279;28;20032;-87
2022/11/01 04:08:27;;;;;;;8.70;6.65;;;;;;;16.24;68.29;102158.28;5043499;28;20040;-88
2022/11/01 04:10:54;;;;;;;7.90;6.25;;;;;;;15.93;68.51;102095.13;4997863;28;20053;-88
2022/11/01 04:13:20;;;;;;;11.10;6.57;;;;;;;16.36;68.34;102165.94;5025159;28;20040;-87
2022/11/01 04:21:24;;;;;;;9.27;6.72;;;;;;;16.17;68.32;102144.69;5020959;28;20103;-87
2022/11/01 04:23:49;;;;;;;8.50;6.60;;;;;;;16.32;68.36;102177.16;5028730;28;20437;-87
2022/11/01 04:26:17;;;;;;;8.77;6.40;;;;;;;16.27;68.45;102168.97;5052061;28;20035;-87
2022/11/01 04:28:55;;;;;;;9.70;6.63;;;;;;;16.35;68.43;102176.41;5034309;28;20087;-86
2022/11/01 04:31:33;;;;;;;8.55;6.38;;;;;;;16.28;68.63;102176.06;5050270;28;20036;-88
2022/11/01 04:34:00;;;;;;;8.52;6.70;;;;;;;16.35;68.59;102179.03;5034129;28;20024;-88
2022/11/01 04:36:26;;;;;;;8.55;6.68;;;;;;;16.39;68.18;102179.28;5035412;28;20029;-87
2022/11/01 04:38:54;;;;;;;;;;;;;;;16.45;67.88;102186.63;5038993;28;20033;-88
2022/11/01 04:41:21;;;;;;;9.70;6.45;;;;;;;16.13;68.00;102140.06;5051827;28;19979;-88
2022/11/01 04:43:47;;;;;;;9.07;6.22;;;;;;;16.29;68.67;102184.88;5033323;28;20052;-87
2022/11/01 04:46:13;;;;;;;9.20;6.47;;;;;;;16.28;68.41;102176.06;5033128;28;20039;-87
2022/11/01 04:48:39;;;;;;;9.63;6.80;;;;;;;16.35;68.22;102187.84;5035388;28;20116;-87
2022/11/01 04:51:05;;;;;;;11.07;6.68;;;;;;;15.99;68.64;102139.34;5050510;28;20036;-86
2022/11/01 04:53:31;;;;;;;8.77;6.78;;;;;;;15.83;68.52;102106.91;5051457;28;20060;-88
2022/11/01 04:55:57;;;;;;;8.43;6.13;;;;;;;16.13;68.51;102164.72;5030738;28;20080;-88
2022/11/01 04:58:22;;;;;;;9.73;6.63;;;;;;;16.03;68.40;102141.31;5014338;28;20025;-89
2022/11/01 05:00:49;;;;;;;9.07;6.72;;;;;;;16.14;68.46;102166.50;5051487;28;20106;-89
2022/11/01 05:03:16;;;;;;;9.52;6.70;;;;;;;16.02;68.41;102156.25;5033173;28;20500;-89
2022/11/01 05:05:42;;;;;;;9.07;6.65;;;;;;;16.25;68.57;102189.06;5029740;28;20052;-89
2022/11/01 05:08:11;;;;;;;8.48;6.22;;;;;;;16.03;68.64;102172.94;5024956;28;20402;-90
2022/11/01 05:10:42;;;;;;;10.73;6.70;;;;;;;16.24;68.59;102204.84;5032592;28;20037;-90
2022/11/01 05:13:10;;;;;;;9.43;6.63;;;;;;;16.17;68.62;102192.13;5014866;28;20486;-91
2022/11/01 05:15:36;;;;;;;8.82;6.18;;;;;;;16.04;68.44;102173.03;5030329;28;20507;-90
2022/11/01 05:18:03;;;;;;;11.95;6.93;;;;;;;16.24;68.49;102208.38;5038882;28;20039;-85
2022/11/01 05:20:30;;;;;;;10.93;6.32;;;;;;;16.27;68.10;102203.25;5057661;28;20080;-88
2022/11/01 05:22:59;;;;;;;9.18;6.40;;;;;;;16.18;68.31;102196.59;5014719;28;20427;-87
2022/11/01 05:25:26;;;;;;;9.50;6.13;;;;;;;16.10;68.36;102198.78;5011427;28;20033;-87
2022/11/01 05:28:05;;;;;;;8.68;6.68;;;;;;;16.05;68.18;102180.09;5031370;28;20021;-87
2022/11/01 05:30:32;;;;;;;12.15;6.63;;;;;;;16.27;68.24;102218.16;5011694;28;20229;-88
2022/11/01 05:32:58;;;;;;;10.43;6.57;;;;;;;16.23;68.34;102218.81;5027370;28;20032;-86
2022/11/01 05:35:27;;;;;;;10.20;6.95;;;;;;;16.20;68.22;102208.13;5030333;28;20060;-89
2022/11/01 05:37:52;;;;;;;9.20;6.43;;;;;;;16.19;68.54;102228.31;5030522;28;20083;-88
2022/11/01 05:40:18;;;;;;;9.63;6.38;;;;;;;16.19;68.43;102224.75;5029503;28;20034;-88
2022/11/01 05:42:44;;;;;;;9.85;7.00;;;;;;;16.12;68.55;102234.03;5031655;28;20025;-87
2022/11/01 05:45:10;;;;;;;9.18;5.93;;;;;;;16.10;68.11;102198.78;5030876;28;20025;-86
2022/11/01 05:47:35;;;;;;;10.15;6.55;;;;;;;16.08;68.52;102208.34;5030137;28;20029;-88
2022/11/01 05:50:01;;;;;;;10.02;6.68;;;;;;;16.22;68.21;102235.47;5006999;28;20487;-86
2022/11/01 05:52:27;;;;;;;8.90;6.60;;;;;;;16.07;68.46;102225.91;5028800;28;20029;-90
2022/11/01 05:54:52;;;;;;;9.07;6.43;;;;;;;15.88;68.75;102199.38;5031640;28;20029;-88
2022/11/01 05:57:19;;;;;;;9.45;6.43;;;;;;;16.16;68.35;102243.94;4999851;28;20116;-90
2022/11/01 05:59:47;;;;;;;9.23;6.22;;;;;;;16.20;68.24;102238.00;5041490;28;20035;-89
2022/11/01 06:02:14;;;;;;;9.07;6.75;;;;;;;16.11;68.49;102229.63;5032394;28;20033;-90
2022/11/01 06:05:03;;;;;;;9.25;6.50;;;;;;;16.22;68.41;102246.91;5011141;28;20116;-89
2022/11/01 06:07:28;;;;;;;9.55;6.15;;;;;;;16.14;68.34;102242.06;5028182;28;20026;-91
2022/11/01 06:09:56;;;;;;;7.88;6.45;;;;;;;15.91;68.02;102199.53;5018163;28;20056;-90
2022/11/01 06:12:25;;;;;;;11.45;6.72;;;;;;;16.16;68.31;102253.59;5031275;28;20448;-91
2022/11/01 06:14:51;;;;;;;10.13;6.40;;;;;;;15.78;68.09;102178.59;5028447;28;20033;-88
2022/11/01 06:17:18;;;;;;;9.50;6.43;;;;;;;15.96;68.48;102224.41;5032211;28;20026;-89
2022/11/01 06:19:47;;;;;;;9.20;6.13;;;;;;;15.76;68.40;102190.78;5010266;28;20061;-91
2022/11/01 06:22:12;;;;;;;11.60;6.63;;;;;;;16.07;68.57;102254.00;5032847;28;20029;-89
2022/11/01 06:24:38;;;;;;;9.85;6.40;;;;;;;16.11;68.52;102257.69;5018275;28;20037;-89
2022/11/01 06:27:06;;;;;;;8.77;5.95;;;;;;;16.12;68.37;102264.78;5029492;28;20040;-89
2022/11/01 06:29:34;;;;;;;10.38;7.00;;;;;;;16.03;68.74;102247.63;5040554;28;20028;-89
2022/11/01 06:32:02;;;;;;;9.45;6.47;;;;;;;15.90;68.61;102231.97;5034806;28;20028;-89
2022/11/01 06:34:28;;;;;;;9.40;6.78;;;;;;;15.90;68.36;102224.06;5045538;28;20036;-89
2022/11/01 06:36:54;;;;;;;10.77;6.22;;;;;;;16.02;68.62;102250.16;5019060;28;20018;-90
2022/11/01 06:39:23;;;;;;;10.93;6.28;;;;;;;16.19;68.65;102275.75;5031228;28;20037;-88
2022/11/01 06:41:51;;;;;;;9.25;6.50;;;;;;;16.08;68.59;102255.78;5034031;28;20472;-91
2022/11/01 06:44:17;;;;;;;9.60;6.13;;;;;;;16.13;68.75;102269.22;5033334;28;20033;-91
2022/11/01 06:46:45;;;;;;;11.13;6.45;;;;;;;16.14;68.71;102274.56;5013440;28;20040;-91
2022/11/01 06:49:13;;;;;;;9.52;6.22;;;;;;;16.08;68.49;102261.06;5033817;28;20616;-90
2022/11/01 06:51:43;;;;;;;8.95;6.75;;;;;;;16.13;68.71;102283.31;5036273;28;20029;-92
2022/11/01 06:54:10;;;;;;;8.57;5.68;;;;;;;16.02;68.80;102266.91;5023770;28;20040;-91
2022/11/01 06:56:45;;;;;;;13.82;6.25;;;;;;;15.97;68.72;102257.81;5031915;28;20037;-91
2022/11/01 06:59:15;;;;;;;10.97;6.50;;;;;;;16.00;68.78;102260.66;5033394;28;20036;-91
2022/11/01 07:01:42;;;;;;;10.23;6.78;;;;;;;15.95;68.63;102256.84;5036110;28;20037;-90
2022/11/01 07:04:12;;;;;;;9.90;6.38;;;;;;;15.82;68.89;102228.91;5021848;28;20078;-91
2022/11/01 07:06:39;;;;;;;9.35;6.60;;;;;;;16.05;69.42;102279.34;5020547;28;20040;-90
2022/11/01 07:09:09;;;;;;;10.68;6.53;;;;;;;15.88;69.21;102257.31;5014668;28;20051;-91
2022/11/01 07:11:34;;;;;;;8.45;6.15;;;;;;;15.97;69.20;102278.91;5034106;28;20060;-90
2022/11/01 07:14:03;;;;;;;10.68;6.82;;;;;;;16.01;69.33;102282.63;5017869;28;20060;-92
2022/11/01 07:16:32;;;;;;;9.48;6.20;;;;;;;15.94;69.26;102265.56;5034847;28;20025;-93
2022/11/01 07:19:08;;;;;;;9.55;6.78;;;;;;;16.02;69.28;102280.09;5036320;28;20085;-93
2022/11/01 07:21:33;;;;;;;8.55;6.57;;;;;;;16.02;69.21;102285.34;5042957;28;20041;-93
2022/11/01 07:24:00;;;;;;;8.57;6.22;;;;;;;15.97;69.35;102268.38;5029285;28;20114;-94
2022/11/01 07:26:27;;;;;;;9.07;6.38;;;;;;;16.06;68.91;102278.50;5028324;28;20425;-94
2022/11/01 07:28:54;;;;;;;9.50;6.53;;;;;;;16.03;69.27;102281.88;5026519;28;20488;-94
2022/11/01 07:31:32;;;;;;;8.52;6.00;;;;;;;16.04;69.18;102281.09;5014864;28;20630;-94
2022/11/01 07:33:57;;;;;;;9.57;6.32;;;;;;;15.93;69.57;102276.91;5048888;28;20052;-90
2022/11/01 07:36:23;;;;;;;8.52;5.97;;;;;;;15.93;69.69;102262.84;5014510;28;20166;-92
2022/11/01 07:38:52;;;;;;;7.97;6.05;;;;;;;16.03;69.26;102284.53;5043116;28;20406;-94
2022/11/01 07:41:28;;;;;;;10.27;6.93;;;;;;;15.95;69.41;102266.47;5032110;28;20121;-94
2022/11/01 07:43:55;;;;;;;;;;;;;;;16.01;69.38;102280.00;5018044;28;20091;-92
2022/11/01 07:46:21;;;;;;;12.50;6.73;;;;;;;16.02;69.42;102279.16;5020522;28;19917;-93
2022/11/01 07:48:59;;;;;;;8.20;6.07;;;;;;;16.02;69.48;102274.81;5010982;28;20045;-92
2022/11/01 07:51:27;;;;;;;8.55;6.20;;;;;;;15.91;69.54;102257.47;5019690;28;20063;-91
2022/11/01 07:53:53;;;;;;;9.57;6.47;;;;;;;15.93;69.36;102268.13;5019095;28;20157;-92
2022/11/01 07:56:30;;;;;;;8.32;6.43;;;;;;;15.79;69.47;102241.91;5017469;28;20175;-92
2022/11/01 07:58:56;;;;;;;8.80;6.10;;;;;;;15.82;69.36;102241.16;5047261;28;20862;-92
2022/11/01 08:01:23;;;;;;;7.90;6.03;;;;;;;16.05;69.38;102276.72;5015422;28;20127;-92
2022/11/01 08:03:49;;;;;;;8.75;6.43;;;;;;;15.85;69.45;102251.88;5032846;28;20033;-90
2022/11/01 08:06:15;;;;;;;8.68;6.35;;;;;;;15.92;69.69;102269.84;5036274;28;20040;-92
2022/11/01 08:08:41;;;;;;;9.57;6.35;;;;;;;15.98;69.58;102272.84;5031721;28;20399;-90
2022/11/01 08:11:07;;;;;;;11.25;6.32;;;;;;;15.87;69.44;102264.31;5010161;28;20033;-90
2022/11/01 08:13:35;;;;;;;8.80;6.40;;;;;;;16.05;69.43;102281.97;5032278;28;20120;-90
2022/11/01 08:16:05;;;;;;;8.40;6.07;;;;;;;16.01;69.44;102270.34;5035776;28;20032;-91
2022/11/01 08:18:33;;;;;;;10.40;6.85;;;;;;;15.86;69.57;102243.16;5023283;28;20033;-89
2022/11/01 08:21:01;;;;;;;10.07;6.50;;;;;;;15.81;69.63;102245.53;5029799;28;20037;-91
2022/11/01 08:23:27;;;;;;;8.50;6.10;;;;;;;16.00;69.64;102268.56;5012646;28;20107;-91
2022/11/01 08:25:56;;;;;;;8.07;6.15;;;;;;;16.05;69.45;102277.59;5017678;28;20029;-91
2022/11/01 08:28:30;;;;;;;9.38;6.40;;;;;;;15.98;69.67;102257.03;5035403;28;20056;-92
2022/11/01 08:30:55;;;;;;;9.18;6.25;;;;;;;16.02;69.62;102269.53;5036173;28;20085;-89
2022/11/01 08:33:21;;;;;;;9.05;5.70;;;;;;;15.97;69.69;102256.94;5018308;28;20490;-89
2022/11/01 08:35:47;;;;;;;7.85;5.88;;;;;;;15.83;69.60;102238.63;5034786;28;20029;-89
2022/11/01 08:38:13;;;;;;;9.50;6.45;;;;;;;15.92;69.75;102259.31;5013141;28;20067;-88
2022/11/01 08:40:39;;;;;;;9.90;6.13;;;;;;;15.77;69.73;102230.38;5031594;28;20064;-88
2022/11/01 08:43:07;;;;;;;7.70;6.00;;;;;;;15.44;69.55;102163.50;5034127;28;20028;-88
2022/11/01 08:45:33;;;;;;;10.30;6.18;;;;;;;16.01;69.67;102265.09;5031375;28;20112;-89
2022/11/01 08:48:06;;;;;;;8.38;5.82;;;;;;;16.02;69.56;102266.91;5010884;28;20125;-90
2022/11/01 08:50:33;;;;;;;8.18;6.25;;;;;;;15.75;69.41;102215.31;5030830;28;20068;-90
2022/11/01 08:53:08;;;;;;;9.00;5.50;;;;;;;15.99;69.69;102266.72;5022646;28;20075;-90
2022/11/01 08:55:37;;;;;;;7.82;6.07;;;;;;;15.94;69.59;102251.47;5013886;28;20025;-90
2022/11/01 08:58:03;;;;;;;7.78;6.22;;;;;;;16.07;69.66;102272.44;5015011;28;20035;-91
2022/11/01 09:00:29;;;;;;;8.23;5.85;;;;;;;15.98;69.56;102256.09;5018443;28;20115;-89
2022/11/01 09:02:56;;;;;;;8.73;6.40;;;;;;;15.65;69.99;102203.31;5032414;28;20040;-90
2022/11/01 09:05:21;;;;;;;7.78;6.25;;;;;;;15.90;69.52;102239.88;5021706;28;20029;-90
2022/11/01 09:07:56;;;;;;;9.23;6.50;;;;;;;16.13;69.54;102267.50;5046728;28;20403;-89
2022/11/01 09:10:21;;;;;;;9.02;6.15;;;;;;;16.12;69.36;102255.13;5017299;28;20581;-89
2022/11/01 09:12:47;;;;;;;8.00;5.78;;;;;;;15.96;69.22;102229.69;5017796;28;20029;-90
2022/11/01 09:15:12;;;;;;;9.95;6.28;;;;;;;15.95;69.39;102237.50;5017860;28;20056;-89
2022/11/01 09:17:38;;;;;;;8.63;6.47;;;;;;;15.82;69.21;102209.56;5018039;28;20021;-89
2022/11/01 09:20:05;;;;;;;9.38;6.53;;;;;;;15.63;69.31;102182.16;5028161;28;20578;-91
2022/11/01 09:22:30;;;;;;;8.02;6.05;;;;;;;15.85;69.39;102213.28;5030782;28;20049;-90
2022/11/01 09:24:58;;;;;;;8.30;6.03;;;;;;;15.67;69.15;102176.22;5027674;28;20124;-89
2022/11/01 09:27:24;;;;;;;8.55;6.47;;;;;;;16.11;69.18;102257.69;5008791;28;20076;-90
2022/11/01 09:29:49;;;;;;;8.55;6.18;;;;;;;16.17;68.97;102263.28;4994366;28;20483;-90
2022/11/01 09:32:15;;;;;;;9.32;6.85;;;;;;;16.08;69.12;102247.88;5017489;28;20036;-90
2022/11/01 09:34:42;;;;;;;8.73;6.00;;;;;;;15.90;69.69;102228.44;5004008;28;20025;-88
2022/11/01 09:37:07;;;;;;;8.98;6.57;;;;;;;16.12;69.58;102265.69;5018371;28;20057;-88
2022/11/01 09:39:33;;;;;;;9.00;6.68;;;;;;;15.98;70.02;102250.81;5011572;28;20077;-88
2022/11/01 09:42:02;;;;;;;8.88;6.55;;;;;;;16.04;69.74;102253.78;5014137;28;20060;-88
2022/11/01 09:44:32;;;;;;;8.05;6.28;;;;;;;15.86;69.59;102227.34;5016059;28;20579;-87
2022/11/01 09:47:02;;;;;;;8.52;5.82;;;;;;;15.97;70.23;102262.19;4996274;28;20037;-87
2022/11/01 09:49:32;;;;;;;7.82;6.43;;;;;;;16.01;69.87;102251.00;5033163;28;20447;-88
2022/11/01 09:51:58;;;;;;;10.70;6.70;;;;;;;15.95;69.53;102230.47;5015878;28;20116;-90
2022/11/01 09:54:26;;;;;;;8.73;6.50;;;;;;;15.91;69.69;102227.59;5022224;28;20033;-90
2022/11/01 09:57:10;;;;;;;9.23;6.40;;;;;;;15.96;69.78;102228.75;5009582;28;20125;-90
2022/11/01 10:00:12;;;;;;;7.32;6.05;;;;;;;16.04;69.70;102246.81;5030322;28;20452;-90
2022/11/01 10:02:59;;;;;;;8.32;6.38;;;;;;;16.02;69.88;102243.19;4927981;29;20031;-90
2022/11/01 10:05:30;;;;;;;8.17;6.30;;;;;;;16.04;69.97;102238.00;5013617;28;20044;-91
2022/11/01 10:08:13;;;;;;;8.35;6.30;;;;;;;16.12;69.47;102238.41;5036342;28;20026;-89
2022/11/01 10:10:43;;;;;;;10.27;6.88;;;;;;;16.21;69.39;102236.28;5032886;28;20479;-89
2022/11/01 10:13:32;;;;;;;11.02;6.53;;;;;;;16.05;69.86;102234.53;5036808;28;20057;-89
2022/11/01 10:16:13;;;;;;;11.00;7.28;;;;;;;16.04;70.05;102235.34;5005958;28;20017;-90
2022/11/01 10:19:03;;;;;;;8.55;6.78;;;;;;;15.96;70.13;102213.88;5020510;28;20040;-91
2022/11/01 10:21:41;;;;;;;9.82;7.07;;;;;;;15.84;69.84;102192.09;5027752;28;20034;-90
2022/11/01 10:24:17;;;;;;;8.77;6.40;;;;;;;15.99;69.45;102195.59;5031016;28;20057;-90
2022/11/01 10:26:45;;;;;;;9.77;6.40;;;;;;;16.14;69.63;102213.06;5034745;28;20487;-90
2022/11/01 10:29:39;;;;;;;10.85;6.80;;;;;;;16.24;69.25;102226.81;5024177;28;20033;-89
2022/11/01 10:32:19;;;;;;;9.77;6.75;;;;;;;16.12;69.23;102207.69;5034301;28;20029;-89
2022/11/01 10:34:45;;;;;;;9.63;6.85;;;;;;;16.18;69.36;102222.94;5043749;28;20025;-90
2022/11/01 10:37:34;;;;;;;10.23;6.80;;;;;;;16.04;69.28;102199.41;5025201;28;20497;-90
2022/11/01 10:40:03;;;;;;;9.35;6.60;;;;;;;16.25;69.26;102222.44;5036207;28;20519;-90
2022/11/01 10:42:29;;;;;;;10.98;6.95;;;;;;;16.24;69.41;102212.75;5066471;28;20016;-89
2022/11/01 10:45:00;;;;;;;9.52;6.10;;;;;;;16.27;69.56;102223.44;5012747;28;20027;-89
2022/11/01 10:47:45;;;;;;;10.77;7.22;;;;;;;16.28;69.60;102226.16;5027262;28;20036;-90
2022/11/01 10:50:10;;;;;;;7.72;6.53;;;;;;;16.29;69.55;102227.97;5036458;28;20122;-89
2022/11/01 10:53:05;;;;;;;9.57;6.40;;;;;;;16.13;69.22;102193.72;5036808;28;20056;-89
2022/11/01 10:55:51;;;;;;;9.48;6.80;;;;;;;16.29;69.52;102214.78;5011943;28;20037;-90
2022/11/01 10:58:29;;;;;;;9.55;6.88;;;;;;;16.28;69.50;102212.09;5018239;28;20091;-90
2022/11/01 11:00:54;;;;;;;7.95;6.40;;;;;;;16.27;69.64;102210.25;5038823;28;20032;-89
2022/11/01 11:03:23;;;;;;;9.85;6.70;;;;;;;16.24;69.77;102205.72;5015624;28;20107;-90
2022/11/01 11:05:52;;;;;;;10.02;6.55;;;;;;;16.04;69.50;102170.41;5034175;28;20085;-90
2022/11/01 11:08:21;;;;;;;9.57;6.82;;;;;;;16.15;69.85;102189.44;5022309;28;20047;-90
2022/11/01 11:10:50;;;;;;;8.15;6.65;;;;;;;16.03;69.77;102168.56;5014943;28;20099;-90
2022/11/01 11:13:24;;;;;;;8.57;6.10;;;;;;;16.26;70.05;102187.38;5030143;28;20075;-89
2022/11/01 11:16:04;;;;;;;12.50;6.90;;;;;;;16.21;69.75;102187.13;5020079;28;20025;-90
2022/11/01 11:18:35;;;;;;;8.43;6.68;;;;;;;16.19;70.34;102183.50;5026458;28;20064;-90
2022/11/01 11:21:12;;;;;;;8.80;6.85;;;;;;;16.03;70.08;102144.88;5029648;28;20032;-90
2022/11/01 11:23:45;;;;;;;;;;;;;;;16.23;70.16;102185.47;5024869;28;20044;-89
2022/11/01 11:26:15;;;;;;;8.88;6.85;;;;;;;16.13;70.27;102167.34;5031887;28;19917;-89
2022/11/01 11:28:45;;;;;;;9.50;6.90;;;;;;;16.11;70.38;102158.47;5016060;28;20036;-90
2022/11/01 11:31:31;;;;;;;9.85;7.15;;;;;;;16.01;70.26;102143.88;5008174;28;20026;-89
2022/11/01 11:34:24;;;;;;;10.60;6.78;;;;;;;16.16;70.50;102178.03;5015519;28;20104;-88
2022/11/01 11:36:52;;;;;;;10.18;6.85;;;;;;;16.13;70.26;102159.44;5035806;28;20033;-88
2022/11/01 11:39:28;;;;;;;8.95;6.38;;;;;;;16.24;70.26;102174.09;5030589;28;20021;-88
2022/11/01 11:41:53;;;;;;;10.63;7.13;;;;;;;16.18;70.47;102167.59;5015887;28;20018;-88